createdAt,value
2023-01-05T00:01:49.132Z,9.23
2023-01-05T00:04:16.058Z,9.21
2023-01-05T00:06:42.626Z,9.27
2023-01-05T00:09:12.271Z,9.24
2023-01-05T00:11:57.042Z,9.25
2023-01-05T00:14:44.847Z,9.26
2023-01-05T00:17:32.140Z,9.24
2023-01-05T00:20:17.444Z,9.24
2023-01-05T00:22:52.121Z,9.24
2023-01-05T00:25:24.043Z,9.25
2023-01-05T00:27:51.822Z,9.24
2023-01-05T00:30:21.301Z,9.17
2023-01-05T00:32:48.358Z,9.16
2023-01-05T00:35:15.873Z,9.16
2023-01-05T00:37:43.223Z,9.14
2023-01-05T00:40:12.784Z,9.13
2023-01-05T00:42:39.618Z,9.12
2023-01-05T00:45:08.194Z,9.16
2023-01-05T00:47:34.599Z,9.18
2023-01-05T00:50:01.209Z,9.16
2023-01-05T00:52:27.773Z,9.15
2023-01-05T00:54:54.298Z,9.12
2023-01-05T00:57:20.751Z,9.11
2023-01-05T00:59:47.196Z,9.16
2023-01-05T01:02:14.689Z,9.17
2023-01-05T01:04:41.237Z,9.17
2023-01-05T01:07:07.867Z,9.15
2023-01-05T01:09:34.409Z,9.14
2023-01-05T01:12:01.232Z,9.15
2023-01-05T01:14:28.052Z,9.13
2023-01-05T01:16:54.551Z,9.14
2023-01-05T01:19:24.459Z,9.16
2023-01-05T01:21:51.144Z,9.13
2023-01-05T01:24:23.126Z,9.11
2023-01-05T01:26:49.678Z,9.14
2023-01-05T01:29:17.385Z,9.15
2023-01-05T01:31:46.703Z,9.12
2023-01-05T01:34:13.363Z,9.13
2023-01-05T01:36:39.964Z,9.13
2023-01-05T01:39:06.578Z,9.15
2023-01-05T01:41:33.070Z,9.18
2023-01-05T01:43:59.456Z,9.17
2023-01-05T01:46:26.944Z,9.15
2023-01-05T01:48:59.016Z,9.13
2023-01-05T01:51:44.862Z,9.06
2023-01-05T01:54:15.736Z,9.11
2023-01-05T01:56:46.884Z,9.09
2023-01-05T01:59:13.589Z,9.06
2023-01-05T02:01:40.572Z,9.08
2023-01-05T02:04:07.975Z,9.04
2023-01-05T02:06:34.504Z,9.03
2023-01-05T02:09:01.107Z,9.02
2023-01-05T02:11:33.330Z,9.03
2023-01-05T02:14:17.952Z,9.02
2023-01-05T02:16:47.323Z,9.00
2023-01-05T02:19:41.496Z,9.02
2023-01-05T02:22:46.587Z,9.03
2023-01-05T02:26:00.959Z,8.99
2023-01-05T02:28:51.934Z,8.93
2023-01-05T02:31:31.714Z,8.95
2023-01-05T02:34:07.469Z,8.98
2023-01-05T02:36:59.833Z,8.94
2023-01-05T02:39:47.116Z,8.92
2023-01-05T02:42:18.373Z,8.92
2023-01-05T02:44:44.909Z,8.85
2023-01-05T02:47:27.689Z,8.72
2023-01-05T02:50:01.743Z,8.64
2023-01-05T02:52:33.448Z,8.65
2023-01-05T02:55:05.504Z,8.56
2023-01-05T02:57:48.347Z,8.58
2023-01-05T03:00:28.899Z,8.59
2023-01-05T03:03:05.671Z,8.64
2023-01-05T03:05:39.048Z,8.64
2023-01-05T03:08:10.436Z,8.58
2023-01-05T03:11:14.637Z,8.52
2023-01-05T03:13:43.902Z,8.53
2023-01-05T03:16:14.919Z,8.49
2023-01-05T03:18:59.998Z,8.44
2023-01-05T03:21:28.279Z,8.35
2023-01-05T03:24:16.122Z,8.33
2023-01-05T03:27:02.493Z,8.33
2023-01-05T03:29:47.200Z,8.34
2023-01-05T03:32:44.231Z,8.35
2023-01-05T03:35:31.616Z,8.33
2023-01-05T03:38:00.918Z,8.33
2023-01-05T03:40:33.281Z,8.26
2023-01-05T03:43:01.085Z,8.26
2023-01-05T03:45:38.104Z,8.20
2023-01-05T03:48:05.007Z,8.18
2023-01-05T03:50:31.494Z,8.11
2023-01-05T03:52:57.981Z,8.13
2023-01-05T03:55:24.415Z,8.15
2023-01-05T03:57:50.843Z,8.13
2023-01-05T04:00:17.530Z,8.07
2023-01-05T04:02:44.066Z,8.08
2023-01-05T04:05:10.533Z,8.04
2023-01-05T04:07:36.942Z,8.07
2023-01-05T04:10:04.433Z,7.93
2023-01-05T04:12:31.001Z,7.97
2023-01-05T04:14:57.409Z,7.94
2023-01-05T04:17:23.857Z,7.95
2023-01-05T04:19:50.280Z,7.96
2023-01-05T04:22:19.856Z,8.03
2023-01-05T04:24:48.827Z,8.05
2023-01-05T04:27:15.257Z,8.06
2023-01-05T04:29:41.654Z,8.11
2023-01-05T04:32:08.084Z,8.10
2023-01-05T04:34:34.563Z,8.07
2023-01-05T04:37:01.009Z,8.03
2023-01-05T04:39:27.401Z,7.96
2023-01-05T04:41:54.246Z,7.90
2023-01-05T04:44:20.660Z,7.89
2023-01-05T04:46:47.121Z,7.83
2023-01-05T04:49:13.683Z,7.91
2023-01-05T04:51:40.092Z,7.87
2023-01-05T04:54:06.868Z,7.82
2023-01-05T04:56:33.291Z,7.85
2023-01-05T04:58:59.789Z,7.81
2023-01-05T05:01:26.426Z,7.88
2023-01-05T05:03:53.186Z,7.85
2023-01-05T05:06:19.850Z,7.87
2023-01-05T05:08:46.271Z,7.94
2023-01-05T05:11:12.698Z,7.92
2023-01-05T05:13:39.125Z,7.88
2023-01-05T05:16:06.047Z,7.93
2023-01-05T05:18:32.538Z,7.91
2023-01-05T05:20:59.012Z,7.84
2023-01-05T05:23:25.710Z,7.88
2023-01-05T05:25:53.006Z,7.94
2023-01-05T05:28:20.380Z,7.99
2023-01-05T05:30:49.503Z,7.96
2023-01-05T05:33:15.959Z,7.98
2023-01-05T05:35:42.444Z,8.00
2023-01-05T05:38:09.087Z,8.02
2023-01-05T05:40:35.554Z,8.01
2023-01-05T05:43:01.994Z,7.92
2023-01-05T05:45:28.448Z,7.90
2023-01-05T05:47:54.899Z,7.90
2023-01-05T05:50:21.309Z,7.88
2023-01-05T05:52:47.871Z,7.84
2023-01-05T05:55:14.414Z,7.80
2023-01-05T05:57:40.817Z,7.73
2023-01-05T06:00:07.788Z,7.70
2023-01-05T06:02:34.319Z,7.78
2023-01-05T06:05:00.803Z,7.83
2023-01-05T06:07:27.221Z,7.79
2023-01-05T06:09:53.637Z,7.83
2023-01-05T06:12:20.140Z,7.79
2023-01-05T06:14:46.581Z,7.69
2023-01-05T06:17:12.978Z,7.70
2023-01-05T06:19:39.441Z,7.72
2023-01-05T06:22:05.860Z,7.67
2023-01-05T06:24:32.230Z,7.65
2023-01-05T06:26:58.679Z,7.60
2023-01-05T06:29:25.101Z,7.56
2023-01-05T06:31:51.558Z,7.60
2023-01-05T06:34:18.000Z,7.68
2023-01-05T06:36:44.514Z,7.59
2023-01-05T06:39:10.927Z,7.57
2023-01-05T06:41:37.356Z,7.59
2023-01-05T06:44:05.474Z,7.63
2023-01-05T06:46:31.866Z,7.64
2023-01-05T06:48:58.258Z,7.63
2023-01-05T06:51:24.676Z,7.58
2023-01-05T06:53:51.089Z,7.47
2023-01-05T06:56:17.521Z,7.50
2023-01-05T06:58:43.984Z,7.48
2023-01-05T07:01:10.540Z,7.50
2023-01-05T07:03:37.003Z,7.43
2023-01-05T07:06:07.623Z,7.44
2023-01-05T07:08:36.417Z,7.45
2023-01-05T07:11:02.847Z,7.34
2023-01-05T07:13:29.273Z,7.30
2023-01-05T07:15:55.715Z,7.28
2023-01-05T07:18:22.292Z,7.36
2023-01-05T07:20:48.716Z,7.39
2023-01-05T07:23:21.556Z,7.40
2023-01-05T07:25:48.003Z,7.48
2023-01-05T07:28:14.395Z,7.54
2023-01-05T07:30:41.008Z,7.50
2023-01-05T07:33:07.450Z,7.40
2023-01-05T07:35:33.847Z,7.28
2023-01-05T07:38:00.279Z,7.29
2023-01-05T07:40:27.146Z,7.23
2023-01-05T07:42:55.011Z,7.28
2023-01-05T07:45:21.714Z,7.28
2023-01-05T07:47:48.130Z,7.30
2023-01-05T07:50:14.625Z,7.27
2023-01-05T07:52:41.091Z,7.30
2023-01-05T07:55:08.171Z,7.26
2023-01-05T07:57:34.681Z,7.22
2023-01-05T08:00:01.061Z,7.18
2023-01-05T08:02:32.225Z,7.22
2023-01-05T08:05:02.152Z,7.22
2023-01-05T08:07:28.627Z,7.14
2023-01-05T08:10:16.420Z,7.19
2023-01-05T08:13:01.344Z,7.31
2023-01-05T08:15:27.775Z,7.33
2023-01-05T08:17:54.179Z,7.39
2023-01-05T08:20:20.713Z,7.43
2023-01-05T08:22:51.540Z,7.42
2023-01-05T08:25:17.995Z,7.30
2023-01-05T08:27:44.611Z,7.29
2023-01-05T08:30:12.240Z,7.28
2023-01-05T08:32:39.367Z,7.23
2023-01-05T08:35:06.876Z,7.23
2023-01-05T08:37:33.365Z,7.23
2023-01-05T08:39:59.786Z,7.25
2023-01-05T08:42:26.246Z,7.28
2023-01-05T08:44:52.687Z,7.31
2023-01-05T08:47:20.105Z,7.36
2023-01-05T08:49:47.220Z,7.28
2023-01-05T08:52:13.682Z,7.29
2023-01-05T08:54:40.162Z,7.22
2023-01-05T08:57:06.686Z,7.19
2023-01-05T08:59:33.115Z,7.18
2023-01-05T09:01:59.686Z,7.19
2023-01-05T09:04:27.604Z,7.13
2023-01-05T09:06:54.459Z,7.24
2023-01-05T09:09:24.291Z,7.40
2023-01-05T09:11:50.976Z,7.45
2023-01-05T09:14:18.771Z,7.55
2023-01-05T09:19:31.740Z,7.73
2023-01-05T09:21:58.280Z,7.75
2023-01-05T09:24:24.898Z,7.80
2023-01-05T09:26:51.404Z,7.70
2023-01-05T09:29:17.951Z,7.74
2023-01-05T09:31:44.481Z,7.78
2023-01-05T09:34:11.095Z,7.71
2023-01-05T09:36:40.878Z,7.72
2023-01-05T09:39:07.686Z,7.69
2023-01-05T09:41:42.074Z,7.80
2023-01-05T09:44:14.484Z,7.96
2023-01-05T09:46:45.787Z,7.96
2023-01-05T09:49:15.228Z,7.90
2023-01-05T09:51:42.567Z,7.88
2023-01-05T09:54:19.196Z,7.89
2023-01-05T09:59:41.294Z,7.97
2023-01-05T10:02:29.310Z,7.99
2023-01-05T10:04:57.245Z,8.06
2023-01-05T10:07:30.434Z,8.03
2023-01-05T10:10:01.831Z,8.00
2023-01-05T10:12:59.723Z,8.03
2023-01-05T10:15:27.524Z,8.09
2023-01-05T10:17:54.136Z,8.15
2023-01-05T10:20:43.897Z,8.14
2023-01-05T10:23:28.621Z,8.22
2023-01-05T10:26:05.392Z,8.17
2023-01-05T10:28:40.783Z,8.19
2023-01-05T10:31:24.115Z,8.25
2023-01-05T10:34:28.589Z,8.31
2023-01-05T10:37:27.596Z,8.39
2023-01-05T10:40:06.096Z,8.37
2023-01-05T10:42:51.232Z,8.52
2023-01-05T10:45:20.597Z,8.32
2023-01-05T10:47:49.221Z,8.44
2023-01-05T10:50:37.488Z,8.56
2023-01-05T10:53:16.297Z,8.70
2023-01-05T10:56:03.633Z,8.73
2023-01-05T10:58:35.186Z,8.54
2023-01-05T11:01:04.760Z,8.62
2023-01-05T11:04:26.570Z,8.71
2023-01-05T11:06:31.565Z,8.79
2023-01-05T11:09:22.838Z,8.87
2023-01-05T11:12:01.242Z,8.96
2023-01-05T11:14:32.759Z,9.09
2023-01-05T11:17:04.510Z,9.08
2023-01-05T11:19:35.868Z,9.15
2023-01-05T11:22:03.063Z,9.19
2023-01-05T11:24:34.090Z,9.23
2023-01-05T11:27:03.396Z,9.24
2023-01-05T11:29:30.682Z,9.26
2023-01-05T11:32:12.145Z,9.31
2023-01-05T11:34:47.803Z,9.42
2023-01-05T11:37:26.540Z,9.45
2023-01-05T11:40:01.669Z,9.47
2023-01-05T11:42:34.764Z,9.60
2023-01-05T11:45:28.629Z,9.63
2023-01-05T11:47:58.813Z,9.58
2023-01-05T11:50:31.807Z,9.68
2023-01-05T11:53:02.467Z,9.61
2023-01-05T11:55:36.659Z,9.54
2023-01-05T11:58:22.976Z,9.37
2023-01-05T12:01:25.513Z,9.26
2023-01-05T12:04:13.371Z,9.10
2023-01-05T12:06:48.951Z,9.11
2023-01-05T12:09:50.452Z,9.12
2023-01-05T12:12:40.733Z,9.07
2023-01-05T12:15:31.167Z,9.05
2023-01-05T12:18:44.260Z,9.22
2023-01-05T12:21:20.318Z,9.23
2023-01-05T12:24:23.944Z,9.14
2023-01-05T12:26:56.580Z,9.23
2023-01-05T12:35:45.045Z,9.21
2023-01-05T12:38:26.664Z,9.26
2023-01-05T12:41:11.867Z,9.26
2023-01-05T12:43:50.419Z,9.35
2023-01-05T12:46:23.435Z,9.45
2023-01-05T12:49:00.101Z,9.44
2023-01-05T12:51:28.807Z,9.47
2023-01-05T12:53:59.507Z,9.52
2023-01-05T12:56:34.188Z,9.53
2023-01-05T12:59:42.239Z,9.57
2023-01-05T13:02:21.195Z,9.55
2023-01-05T13:04:58.718Z,9.58
2023-01-05T13:07:38.162Z,9.62
2023-01-05T13:10:20.863Z,9.66
2023-01-05T13:12:53.331Z,9.68
2023-01-05T13:15:29.600Z,9.74
2023-01-05T13:17:59.056Z,9.77
2023-01-05T13:20:40.485Z,9.77
2023-01-05T13:23:18.179Z,9.79
2023-01-05T13:25:54.105Z,9.84
2023-01-05T13:28:24.542Z,9.80
2023-01-05T13:31:22.642Z,9.73
2023-01-05T13:34:09.853Z,9.72
2023-01-05T13:36:59.843Z,9.81
2023-01-05T13:40:00.571Z,9.82
2023-01-05T13:42:50.151Z,9.85
2023-01-05T13:45:40.661Z,9.77
2023-01-05T13:48:57.503Z,9.76
2023-01-05T13:51:43.094Z,9.74
2023-01-05T13:55:07.820Z,9.72
2023-01-05T13:57:42.536Z,9.71
2023-01-05T14:00:33.093Z,9.79
2023-01-05T14:03:08.000Z,9.84
2023-01-05T14:05:46.901Z,9.84
2023-01-05T14:08:25.795Z,9.72
2023-01-05T14:11:10.426Z,9.76
2023-01-05T14:13:46.071Z,9.68
2023-01-05T14:16:35.182Z,9.71
2023-01-05T14:19:21.496Z,9.74
2023-01-05T14:21:54.491Z,9.72
2023-01-05T14:24:36.692Z,9.72
2023-01-05T14:27:11.606Z,9.71
2023-01-05T14:32:42.703Z,9.64
2023-01-05T14:35:12.231Z,9.65
2023-01-05T14:37:42.876Z,9.58
2023-01-05T14:40:20.629Z,9.54
2023-01-05T14:42:48.960Z,9.45
2023-01-05T14:45:23.165Z,9.43
2023-01-05T14:47:54.050Z,9.37
2023-01-05T14:50:39.058Z,9.31
2023-01-05T14:53:14.494Z,9.30
2023-01-05T14:55:52.893Z,9.30
2023-01-05T14:58:55.633Z,9.26
2023-01-05T15:01:28.297Z,9.22
2023-01-05T15:04:05.054Z,9.13
2023-01-05T15:06:50.156Z,9.07
2023-01-05T15:09:58.485Z,9.09
2023-01-05T15:12:36.161Z,9.02
2023-01-05T15:15:34.548Z,8.98
2023-01-05T15:18:22.712Z,8.94
2023-01-05T15:21:29.162Z,8.87
2023-01-05T15:24:23.368Z,8.82
2023-01-05T15:27:10.196Z,8.84
2023-01-05T15:30:01.750Z,8.89
2023-01-05T15:32:34.342Z,8.92
2023-01-05T15:35:26.502Z,8.95
2023-01-05T15:37:53.192Z,8.96
2023-01-05T15:40:22.744Z,8.89
2023-01-05T15:42:52.690Z,8.87
2023-01-05T15:45:23.428Z,8.87
2023-01-05T15:47:51.108Z,8.78
2023-01-05T15:50:25.168Z,8.73
2023-01-05T15:52:57.294Z,8.78
2023-01-05T15:55:25.023Z,8.83
2023-01-05T15:57:54.007Z,8.81
2023-01-05T16:00:24.281Z,8.77
2023-01-05T16:02:50.893Z,8.66
2023-01-05T16:05:17.390Z,8.67
2023-01-05T16:07:50.533Z,8.64
2023-01-05T16:10:20.113Z,8.66
2023-01-05T16:12:49.419Z,8.59
2023-01-05T16:15:20.469Z,8.54
2023-01-05T16:17:47.969Z,8.57
2023-01-05T16:20:20.123Z,8.53
2023-01-05T16:23:14.448Z,8.47
2023-01-05T16:25:48.816Z,8.51
2023-01-05T16:28:18.699Z,8.52
2023-01-05T16:30:47.153Z,8.44
2023-01-05T16:33:27.195Z,8.47
2023-01-05T16:36:19.759Z,8.49
2023-01-05T16:38:46.612Z,8.54
2023-01-05T16:41:20.369Z,8.56
2023-01-05T16:44:01.379Z,8.56
2023-01-05T16:46:30.847Z,8.59
2023-01-05T16:49:25.242Z,8.61
2023-01-05T16:51:52.977Z,8.54
2023-01-05T16:54:23.519Z,8.59
2023-01-05T16:56:57.769Z,8.54
2023-01-05T16:59:40.201Z,8.41
2023-01-05T17:02:28.419Z,8.39
2023-01-05T17:04:55.130Z,8.43
2023-01-05T17:07:22.209Z,8.48
2023-01-05T17:09:49.263Z,8.49
2023-01-05T17:12:15.894Z,8.51
2023-01-05T17:14:44.239Z,8.50
2023-01-05T17:17:12.736Z,8.53
2023-01-05T17:19:39.477Z,8.56
2023-01-05T17:22:10.277Z,8.58
2023-01-05T17:24:38.863Z,8.58
2023-01-05T17:27:05.315Z,8.63
2023-01-05T17:29:32.823Z,8.66
2023-01-05T17:31:59.582Z,8.65
2023-01-05T17:34:26.215Z,8.70
2023-01-05T17:36:58.762Z,8.72
2023-01-05T17:39:25.897Z,8.76
2023-01-05T17:41:52.740Z,8.76
2023-01-05T17:44:19.374Z,8.71
2023-01-05T17:46:47.343Z,8.67
2023-01-05T17:49:19.320Z,8.62
2023-01-05T17:51:45.993Z,8.65
2023-01-05T17:54:12.562Z,8.69
2023-01-05T17:56:39.203Z,8.64
2023-01-05T17:59:05.863Z,8.60
2023-01-05T18:01:33.911Z,8.65
2023-01-05T18:04:01.522Z,8.61
2023-01-05T18:06:28.158Z,8.67
2023-01-05T18:08:54.823Z,8.70
2023-01-05T18:11:21.476Z,8.70
2023-01-05T18:13:47.987Z,8.70
2023-01-05T18:16:15.219Z,8.71
2023-01-05T18:18:41.938Z,8.73
2023-01-05T18:21:08.487Z,8.72
2023-01-05T18:23:35.273Z,8.73
2023-01-05T18:26:06.729Z,8.76
2023-01-05T18:28:33.043Z,8.77
2023-01-05T18:31:00.961Z,8.77
2023-01-05T18:33:27.822Z,8.77
2023-01-05T18:38:21.817Z,8.78
2023-01-05T18:40:50.015Z,8.82
2023-01-05T18:43:17.326Z,8.86
2023-01-05T18:45:44.232Z,8.89
2023-01-05T18:48:10.741Z,8.90
2023-01-05T18:50:49.849Z,8.87
2023-01-05T18:53:17.487Z,8.86
2023-01-05T18:55:43.889Z,8.88
2023-01-05T18:58:11.447Z,8.86
2023-01-05T19:00:42.698Z,8.87
2023-01-05T19:03:10.083Z,8.90
2023-01-05T19:05:44.250Z,8.93
2023-01-05T19:08:12.723Z,8.88
2023-01-05T19:10:39.176Z,8.87
2023-01-05T19:13:06.101Z,8.86
2023-01-05T19:15:34.172Z,8.90
2023-01-05T19:18:01.035Z,8.91
2023-01-05T19:20:27.529Z,8.93
2023-01-05T19:22:54.021Z,8.95
2023-01-05T19:25:20.807Z,8.97
2023-01-05T19:27:47.272Z,8.94
2023-01-05T19:30:15.003Z,8.94
2023-01-05T19:32:41.472Z,8.95
2023-01-05T19:35:08.124Z,8.90
2023-01-05T19:37:35.668Z,8.86
2023-01-05T19:40:02.805Z,8.79
2023-01-05T19:42:31.807Z,8.72
2023-01-05T19:44:58.277Z,8.70
2023-01-05T19:47:24.837Z,8.63
2023-01-05T19:49:53.013Z,8.58
2023-01-05T19:52:19.492Z,8.55
2023-01-05T19:54:45.993Z,8.51
2023-01-05T19:57:12.414Z,8.44
2023-01-05T19:59:38.994Z,8.43
2023-01-05T20:02:06.296Z,8.44
2023-01-05T20:04:32.859Z,8.35
2023-01-05T20:07:01.840Z,8.28
2023-01-05T20:09:29.462Z,8.22
2023-01-05T20:12:05.795Z,8.14
2023-01-05T20:14:39.614Z,8.10
2023-01-05T20:17:08.799Z,8.05
2023-01-05T20:19:36.738Z,8.05
2023-01-05T20:22:04.903Z,8.11
2023-01-05T20:24:33.278Z,8.12
2023-01-05T20:27:02.932Z,8.04
2023-01-05T20:29:29.682Z,7.60
2023-01-05T20:32:00.505Z,7.24
2023-01-05T20:34:31.843Z,7.06
2023-01-05T20:36:59.651Z,7.22
2023-01-05T20:39:26.389Z,7.19
2023-01-05T20:41:54.008Z,7.15
2023-01-05T20:44:24.563Z,7.14
2023-01-05T20:46:53.751Z,7.18
2023-01-05T20:49:21.343Z,7.15
2023-01-05T20:51:48.264Z,7.17
2023-01-05T20:54:15.589Z,7.16
2023-01-05T20:56:43.722Z,7.12
2023-01-05T20:59:24.599Z,7.08
2023-01-05T21:01:51.972Z,7.08
2023-01-05T21:04:19.728Z,7.08
2023-01-05T21:06:46.867Z,7.07
2023-01-05T21:09:14.173Z,7.08
2023-01-05T21:11:41.741Z,7.23
2023-01-05T21:14:08.922Z,7.28
2023-01-05T21:16:39.125Z,7.25
2023-01-05T21:19:10.031Z,7.28
2023-01-05T21:21:37.396Z,7.32
2023-01-05T21:24:07.713Z,7.38
2023-01-05T21:26:34.213Z,7.42
2023-01-05T21:29:00.655Z,7.42
2023-01-05T21:31:27.458Z,7.47
2023-01-05T21:33:54.305Z,7.56
2023-01-05T21:36:26.973Z,7.53
2023-01-05T21:39:03.519Z,7.56
2023-01-05T21:41:50.878Z,7.59
2023-01-05T21:44:18.268Z,7.60
2023-01-05T21:46:44.875Z,7.61
2023-01-05T21:49:11.971Z,7.63
2023-01-05T21:51:57.393Z,7.64
2023-01-05T21:54:43.171Z,7.68
2023-01-05T21:57:10.213Z,7.72
2023-01-05T21:59:36.887Z,7.75
2023-01-05T22:02:03.983Z,7.77
2023-01-05T22:04:30.477Z,7.80
2023-01-05T22:06:57.372Z,7.83
2023-01-05T22:09:23.876Z,7.72
2023-01-05T22:11:50.352Z,7.79
2023-01-05T22:14:16.788Z,7.64
2023-01-05T22:16:43.352Z,7.56
2023-01-05T22:19:11.041Z,7.59
2023-01-05T22:21:37.529Z,7.57
2023-01-05T22:24:04.173Z,7.57
2023-01-05T22:26:30.657Z,7.57
2023-01-05T22:28:57.057Z,7.65
2023-01-05T22:31:27.124Z,7.63
2023-01-05T22:33:56.135Z,7.66
2023-01-05T22:36:23.821Z,7.58
2023-01-05T22:38:51.971Z,7.54
2023-01-05T22:41:21.274Z,7.60
2023-01-05T22:43:48.429Z,7.63
2023-01-05T22:46:19.160Z,7.62
2023-01-05T22:48:47.017Z,7.59
2023-01-05T22:51:14.829Z,7.62
2023-01-05T22:53:41.300Z,7.64
2023-01-05T22:56:09.244Z,7.66
2023-01-05T22:58:36.468Z,7.73
2023-01-05T23:01:20.043Z,7.69
2023-01-05T23:03:46.966Z,7.65
2023-01-05T23:06:13.907Z,7.62
2023-01-05T23:08:42.874Z,7.72
2023-01-05T23:11:15.713Z,7.75
2023-01-05T23:13:42.437Z,7.75
2023-01-05T23:16:09.799Z,7.83
2023-01-05T23:18:37.736Z,7.89
2023-01-05T23:21:07.599Z,7.94
2023-01-05T23:23:34.887Z,8.00
2023-01-05T23:26:01.371Z,7.97
2023-01-05T23:28:29.121Z,7.93
2023-01-05T23:30:58.003Z,7.93
2023-01-05T23:33:26.941Z,7.89
2023-01-05T23:35:54.750Z,7.92
2023-01-05T23:38:22.542Z,7.94
2023-01-05T23:40:50.867Z,7.94
2023-01-05T23:43:20.642Z,7.99
2023-01-05T23:45:47.367Z,8.01
2023-01-05T23:48:14.270Z,8.02
2023-01-05T23:50:45.902Z,8.05
2023-01-05T23:53:13.566Z,8.06
2023-01-05T23:55:40.881Z,8.06
2023-01-05T23:58:08.013Z,8.04
